sensor_id;sensor_type;location;lat;lon;timestamp;temperature;humidity
52211;DHT22;38179;52.756;6.906;2023-04-01T00:01:05;9.40;99.90
52211;DHT22;38179;52.756;6.906;2023-04-01T00:03:32;9.40;99.90
52211;DHT22;38179;52.756;6.906;2023-04-01T00:05:59;9.40;99.90
52211;DHT22;38179;52.756;6.906;2023-04-01T00:08:26;9.40;99.90
52211;DHT22;38179;52.756;6.906;2023-04-01T00:10:53;9.40;99.90
52211;DHT22;38179;52.756;6.906;2023-04-01T00:13:19;9.40;99.90
52211;DHT22;38179;52.756;6.906;2023-04-01T00:15:46;9.40;99.90
52211;DHT22;38179;52.756;6.906;2023-04-01T00:18:12;9.40;99.90
52211;DHT22;38179;52.756;6.906;2023-04-01T00:20:42;9.40;99.90
52211;DHT22;38179;52.756;6.906;2023-04-01T00:23:09;9.40;99.90
52211;DHT22;38179;52.756;6.906;2023-04-01T00:25:36;9.40;99.90
52211;DHT22;38179;52.756;6.906;2023-04-01T00:28:02;9.30;99.90
52211;DHT22;38179;52.756;6.906;2023-04-01T00:30:28;9.30;99.90
52211;DHT22;38179;52.756;6.906;2023-04-01T00:32:54;9.30;99.90
52211;DHT22;38179;52.756;6.906;2023-04-01T00:35:20;9.40;99.90
52211;DHT22;38179;52.756;6.906;2023-04-01T00:37:46;9.30;99.90
52211;DHT22;38179;52.756;6.906;2023-04-01T00:40:42;9.40;99.90
52211;DHT22;38179;52.756;6.906;2023-04-01T00:43:14;9.30;99.90
52211;DHT22;38179;52.756;6.906;2023-04-01T00:45:42;9.30;99.90
52211;DHT22;38179;52.756;6.906;2023-04-01T00:48:17;9.30;99.90
52211;DHT22;38179;52.756;6.906;2023-04-01T00:50:55;9.30;99.90
52211;DHT22;38179;52.756;6.906;2023-04-01T00:53:22;9.30;99.90
52211;DHT22;38179;52.756;6.906;2023-04-01T00:56:03;9.30;99.90
52211;DHT22;38179;52.756;6.906;2023-04-01T00:58:34;9.30;99.90
52211;DHT22;38179;52.756;6.906;2023-04-01T01:01:01;9.30;99.90
52211;DHT22;38179;52.756;6.906;2023-04-01T01:03:27;9.30;99.90
52211;DHT22;38179;52.756;6.906;2023-04-01T01:06:08;9.30;99.90
52211;DHT22;38179;52.756;6.906;2023-04-01T01:11:40;9.30;99.90
52211;DHT22;38179;52.756;6.906;2023-04-01T01:17:32;9.30;99.90
52211;DHT22;38179;52.756;6.906;2023-04-01T01:37:24;9.30;99.90
52211;DHT22;38179;52.756;6.906;2023-04-01T01:39:54;9.30;99.90
52211;DHT22;38179;52.756;6.906;2023-04-01T01:42:22;9.30;99.90
52211;DHT22;38179;52.756;6.906;2023-04-01T01:44:50;9.30;99.90
52211;DHT22;38179;52.756;6.906;2023-04-01T01:47:19;9.30;99.90
52211;DHT22;38179;52.756;6.906;2023-04-01T01:49:48;9.30;99.90
52211;DHT22;38179;52.756;6.906;2023-04-01T01:52:16;9.20;99.90
52211;DHT22;38179;52.756;6.906;2023-04-01T01:54:53;9.30;99.90
52211;DHT22;38179;52.756;6.906;2023-04-01T01:57:26;9.30;99.90
52211;DHT22;38179;52.756;6.906;2023-04-01T01:59:56;9.20;99.90
52211;DHT22;38179;52.756;6.906;2023-04-01T02:02:24;9.30;99.90
52211;DHT22;38179;52.756;6.906;2023-04-01T02:04:52;9.20;99.90
52211;DHT22;38179;52.756;6.906;2023-04-01T02:07:23;9.30;99.90
52211;DHT22;38179;52.756;6.906;2023-04-01T02:09:52;9.20;99.90
52211;DHT22;38179;52.756;6.906;2023-04-01T02:12:19;9.20;99.90
52211;DHT22;38179;52.756;6.906;2023-04-01T02:15:09;9.30;99.90
52211;DHT22;38179;52.756;6.906;2023-04-01T02:17:39;9.20;99.90
52211;DHT22;38179;52.756;6.906;2023-04-01T02:20:10;9.20;99.90
52211;DHT22;38179;52.756;6.906;2023-04-01T02:22:41;9.20;99.90
52211;DHT22;38179;52.756;6.906;2023-04-01T02:25:12;9.20;99.90
52211;DHT22;38179;52.756;6.906;2023-04-01T02:27:39;9.20;99.90
52211;DHT22;38179;52.756;6.906;2023-04-01T02:30:06;9.20;99.90
52211;DHT22;38179;52.756;6.906;2023-04-01T02:32:34;9.20;99.90
52211;DHT22;38179;52.756;6.906;2023-04-01T02:35:00;9.20;99.90
52211;DHT22;38179;52.756;6.906;2023-04-01T02:37:31;9.20;99.90
52211;DHT22;38179;52.756;6.906;2023-04-01T02:40:05;9.20;99.90
52211;DHT22;38179;52.756;6.906;2023-04-01T02:42:33;9.20;99.90
52211;DHT22;38179;52.756;6.906;2023-04-01T02:44:59;9.20;99.90
52211;DHT22;38179;52.756;6.906;2023-04-01T02:47:25;9.20;99.90
52211;DHT22;38179;52.756;6.906;2023-04-01T02:49:51;9.20;99.90
52211;DHT22;38179;52.756;6.906;2023-04-01T02:52:27;9.20;99.90
52211;DHT22;38179;52.756;6.906;2023-04-01T02:54:54;9.20;99.90
52211;DHT22;38179;52.756;6.906;2023-04-01T02:57:20;9.20;99.90
52211;DHT22;38179;52.756;6.906;2023-04-01T02:59:46;9.20;99.90
52211;DHT22;38179;52.756;6.906;2023-04-01T03:02:12;9.20;99.90
52211;DHT22;38179;52.756;6.906;2023-04-01T03:04:38;9.20;99.90
52211;DHT22;38179;52.756;6.906;2023-04-01T03:07:05;9.20;99.90
52211;DHT22;38179;52.756;6.906;2023-04-01T03:09:32;9.20;99.90
52211;DHT22;38179;52.756;6.906;2023-04-01T03:11:58;9.20;99.90
52211;DHT22;38179;52.756;6.906;2023-04-01T03:14:27;9.20;99.90
52211;DHT22;38179;52.756;6.906;2023-04-01T03:16:52;9.20;99.90
52211;DHT22;38179;52.756;6.906;2023-04-01T03:19:18;9.20;99.90
52211;DHT22;38179;52.756;6.906;2023-04-01T03:21:44;9.20;99.90
52211;DHT22;38179;52.756;6.906;2023-04-01T03:24:10;9.20;99.90
52211;DHT22;38179;52.756;6.906;2023-04-01T03:26:39;9.20;99.90
52211;DHT22;38179;52.756;6.906;2023-04-01T03:29:05;9.20;99.90
52211;DHT22;38179;52.756;6.906;2023-04-01T03:31:31;9.20;99.90
52211;DHT22;38179;52.756;6.906;2023-04-01T03:33:57;9.20;99.90
52211;DHT22;38179;52.756;6.906;2023-04-01T03:36:23;9.20;99.90
52211;DHT22;38179;52.756;6.906;2023-04-01T03:38:49;9.20;99.90
52211;DHT22;38179;52.756;6.906;2023-04-01T03:41:16;9.20;99.90
52211;DHT22;38179;52.756;6.906;2023-04-01T03:43:43;9.20;99.90
52211;DHT22;38179;52.756;6.906;2023-04-01T03:46:09;9.20;99.90
52211;DHT22;38179;52.756;6.906;2023-04-01T03:48:35;9.20;99.90
52211;DHT22;38179;52.756;6.906;2023-04-01T03:51:01;9.20;99.90
52211;DHT22;38179;52.756;6.906;2023-04-01T03:53:27;9.20;99.90
52211;DHT22;38179;52.756;6.906;2023-04-01T03:55:53;9.20;99.90
52211;DHT22;38179;52.756;6.906;2023-04-01T03:58:19;9.20;99.90
52211;DHT22;38179;52.756;6.906;2023-04-01T04:00:46;9.10;99.90
52211;DHT22;38179;52.756;6.906;2023-04-01T04:03:12;9.20;99.90
52211;DHT22;38179;52.756;6.906;2023-04-01T04:05:40;9.20;99.90
52211;DHT22;38179;52.756;6.906;2023-04-01T04:08:11;9.20;99.90
52211;DHT22;38179;52.756;6.906;2023-04-01T04:10:37;9.20;99.90
52211;DHT22;38179;52.756;6.906;2023-04-01T04:13:02;9.20;99.90
52211;DHT22;38179;52.756;6.906;2023-04-01T04:15:28;9.20;99.90
52211;DHT22;38179;52.756;6.906;2023-04-01T04:17:54;9.20;99.90
52211;DHT22;38179;52.756;6.906;2023-04-01T04:20:23;9.20;99.90
52211;DHT22;38179;52.756;6.906;2023-04-01T04:22:49;9.20;99.90
52211;DHT22;38179;52.756;6.906;2023-04-01T04:25:15;9.20;99.90
52211;DHT22;38179;52.756;6.906;2023-04-01T04:27:41;9.10;99.90
52211;DHT22;38179;52.756;6.906;2023-04-01T04:30:07;9.20;99.90
52211;DHT22;38179;52.756;6.906;2023-04-01T04:32:34;9.20;99.90
52211;DHT22;38179;52.756;6.906;2023-04-01T04:35:00;9.20;99.90
52211;DHT22;38179;52.756;6.906;2023-04-01T04:37:26;9.20;99.90
52211;DHT22;38179;52.756;6.906;2023-04-01T04:39:52;9.20;99.90
52211;DHT22;38179;52.756;6.906;2023-04-01T04:42:18;9.20;99.90
52211;DHT22;38179;52.756;6.906;2023-04-01T04:44:44;9.30;99.90
52211;DHT22;38179;52.756;6.906;2023-04-01T04:47:11;9.20;99.90
52211;DHT22;38179;52.756;6.906;2023-04-01T04:49:37;9.30;99.90
52211;DHT22;38179;52.756;6.906;2023-04-01T04:52:02;9.20;99.90
52211;DHT22;38179;52.756;6.906;2023-04-01T04:54:32;9.30;99.90
52211;DHT22;38179;52.756;6.906;2023-04-01T04:56:58;9.30;99.90
52211;DHT22;38179;52.756;6.906;2023-04-01T04:59:24;9.30;99.90
52211;DHT22;38179;52.756;6.906;2023-04-01T05:01:50;9.30;99.90
52211;DHT22;38179;52.756;6.906;2023-04-01T05:04:16;9.30;99.90
52211;DHT22;38179;52.756;6.906;2023-04-01T05:06:43;9.30;99.90
52211;DHT22;38179;52.756;6.906;2023-04-01T05:09:10;9.30;99.90
52211;DHT22;38179;52.756;6.906;2023-04-01T05:11:36;9.30;99.90
52211;DHT22;38179;52.756;6.906;2023-04-01T05:14:02;9.30;99.90
52211;DHT22;38179;52.756;6.906;2023-04-01T05:16:28;9.30;99.90
52211;DHT22;38179;52.756;6.906;2023-04-01T05:18:53;9.30;99.90
52211;DHT22;38179;52.756;6.906;2023-04-01T05:21:19;9.30;99.90
52211;DHT22;38179;52.756;6.906;2023-04-01T05:23:45;9.30;99.90
52211;DHT22;38179;52.756;6.906;2023-04-01T05:26:14;9.30;99.90
52211;DHT22;38179;52.756;6.906;2023-04-01T05:28:40;9.30;99.90
52211;DHT22;38179;52.756;6.906;2023-04-01T05:31:07;9.30;99.90
52211;DHT22;38179;52.756;6.906;2023-04-01T05:33:33;9.30;99.90
52211;DHT22;38179;52.756;6.906;2023-04-01T05:36:14;9.30;99.90
52211;DHT22;38179;52.756;6.906;2023-04-01T05:38:41;9.40;99.90
52211;DHT22;38179;52.756;6.906;2023-04-01T05:41:07;9.40;99.90
52211;DHT22;38179;52.756;6.906;2023-04-01T05:43:36;9.40;99.90
52211;DHT22;38179;52.756;6.906;2023-04-01T05:46:02;9.40;99.90
52211;DHT22;38179;52.756;6.906;2023-04-01T05:48:28;9.30;99.90
52211;DHT22;38179;52.756;6.906;2023-04-01T05:50:54;9.40;99.90
52211;DHT22;38179;52.756;6.906;2023-04-01T05:53:20;9.40;99.90
52211;DHT22;38179;52.756;6.906;2023-04-01T05:55:46;9.30;99.90
52211;DHT22;38179;52.756;6.906;2023-04-01T05:58:12;9.40;99.90
52211;DHT22;38179;52.756;6.906;2023-04-01T06:00:38;9.40;99.90
52211;DHT22;38179;52.756;6.906;2023-04-01T06:03:03;9.40;99.90
52211;DHT22;38179;52.756;6.906;2023-04-01T06:05:35;9.40;99.90
52211;DHT22;38179;52.756;6.906;2023-04-01T06:08:13;9.40;99.90
52211;DHT22;38179;52.756;6.906;2023-04-01T06:10:48;9.40;99.90
52211;DHT22;38179;52.756;6.906;2023-04-01T06:16:35;9.40;99.90
52211;DHT22;38179;52.756;6.906;2023-04-01T06:49:05;9.50;99.90
52211;DHT22;38179;52.756;6.906;2023-04-01T06:54:38;9.50;99.90
52211;DHT22;38179;52.756;6.906;2023-04-01T06:57:27;9.50;99.90
52211;DHT22;38179;52.756;6.906;2023-04-01T06:59:57;9.50;99.90
52211;DHT22;38179;52.756;6.906;2023-04-01T07:02:38;9.50;99.90
52211;DHT22;38179;52.756;6.906;2023-04-01T07:05:05;9.60;99.90
52211;DHT22;38179;52.756;6.906;2023-04-01T07:07:36;9.60;99.90
52211;DHT22;38179;52.756;6.906;2023-04-01T07:12:59;9.60;99.90
52211;DHT22;38179;52.756;6.906;2023-04-01T07:15:33;9.70;99.90
52211;DHT22;38179;52.756;6.906;2023-04-01T07:18:14;9.70;99.90
52211;DHT22;38179;52.756;6.906;2023-04-01T07:20:42;9.70;99.90
52211;DHT22;38179;52.756;6.906;2023-04-01T07:23:21;9.70;99.90
52211;DHT22;38179;52.756;6.906;2023-04-01T07:26:13;9.80;99.90
52211;DHT22;38179;52.756;6.906;2023-04-01T07:28:40;9.70;99.90
52211;DHT22;38179;52.756;6.906;2023-04-01T07:31:15;9.80;99.90
52211;DHT22;38179;52.756;6.906;2023-04-01T07:44:44;9.80;99.90
52211;DHT22;38179;52.756;6.906;2023-04-01T07:50:26;9.80;99.90
52211;DHT22;38179;52.756;6.906;2023-04-01T07:59:21;9.80;99.90
52211;DHT22;38179;52.756;6.906;2023-04-01T08:02:08;9.90;99.90
52211;DHT22;38179;52.756;6.906;2023-04-01T08:07:20;9.90;99.90
52211;DHT22;38179;52.756;6.906;2023-04-01T08:09:59;9.90;99.90
52211;DHT22;38179;52.756;6.906;2023-04-01T08:13:01;9.90;99.90
52211;DHT22;38179;52.756;6.906;2023-04-01T08:18:41;9.90;99.90
52211;DHT22;38179;52.756;6.906;2023-04-01T08:21:47;10.00;99.90
52211;DHT22;38179;52.756;6.906;2023-04-01T08:27:09;10.00;99.90
52211;DHT22;38179;52.756;6.906;2023-04-01T08:29:50;9.90;99.90
52211;DHT22;38179;52.756;6.906;2023-04-01T08:32:39;9.90;99.90
52211;DHT22;38179;52.756;6.906;2023-04-01T08:35:14;10.00;99.90
52211;DHT22;38179;52.756;6.906;2023-04-01T08:37:43;10.00;99.90
52211;DHT22;38179;52.756;6.906;2023-04-01T08:40:34;10.00;99.90
52211;DHT22;38179;52.756;6.906;2023-04-01T08:48:50;10.10;99.90
52211;DHT22;38179;52.756;6.906;2023-04-01T08:57:01;10.20;99.90
52211;DHT22;38179;52.756;6.906;2023-04-01T09:10:47;10.20;99.90
52211;DHT22;38179;52.756;6.906;2023-04-01T09:27:02;10.30;99.90
52211;DHT22;38179;52.756;6.906;2023-04-01T09:32:50;10.20;99.90
52211;DHT22;38179;52.756;6.906;2023-04-01T09:40:45;10.30;99.90
52211;DHT22;38179;52.756;6.906;2023-04-01T09:43:43;10.30;99.90
52211;DHT22;38179;52.756;6.906;2023-04-01T09:46:14;10.30;99.90
52211;DHT22;38179;52.756;6.906;2023-04-01T09:51:54;10.30;99.90
52211;DHT22;38179;52.756;6.906;2023-04-01T09:54:47;10.30;99.90
52211;DHT22;38179;52.756;6.906;2023-04-01T10:01:01;10.30;99.90
52211;DHT22;38179;52.756;6.906;2023-04-01T10:09:17;10.40;99.90
52211;DHT22;38179;52.756;6.906;2023-04-01T10:14:53;10.40;99.90
52211;DHT22;38179;52.756;6.906;2023-04-01T10:18:14;10.50;99.90
52211;DHT22;38179;52.756;6.906;2023-04-01T10:23:16;10.50;99.90
52211;DHT22;38179;52.756;6.906;2023-04-01T10:28:48;10.60;99.90
52211;DHT22;38179;52.756;6.906;2023-04-01T10:34:44;10.70;99.90
52211;DHT22;38179;52.756;6.906;2023-04-01T10:54:12;10.90;99.90
52211;DHT22;38179;52.756;6.906;2023-04-01T11:19:37;11.00;99.90
52211;DHT22;38179;52.756;6.906;2023-04-01T11:22:29;11.10;99.90
52211;DHT22;38179;52.756;6.906;2023-04-01T11:39:03;11.30;99.90
52211;DHT22;38179;52.756;6.906;2023-04-01T11:44:21;11.40;99.90
52211;DHT22;38179;52.756;6.906;2023-04-01T11:56:02;11.50;99.90
52211;DHT22;38179;52.756;6.906;2023-04-01T11:59:51;11.30;99.90
52211;DHT22;38179;52.756;6.906;2023-04-01T12:01:58;11.20;99.90
52211;DHT22;38179;52.756;6.906;2023-04-01T12:18:29;10.70;99.90
52211;DHT22;38179;52.756;6.906;2023-04-01T12:26:35;10.60;99.90
52211;DHT22;38179;52.756;6.906;2023-04-01T12:43:05;10.50;99.90
52211;DHT22;38179;52.756;6.906;2023-04-01T12:48:23;10.40;99.90
52211;DHT22;38179;52.756;6.906;2023-04-01T12:51:12;10.40;99.90
52211;DHT22;38179;52.756;6.906;2023-04-01T13:01:59;10.30;99.90
52211;DHT22;38179;52.756;6.906;2023-04-01T13:13:06;10.20;99.90
52211;DHT22;38179;52.756;6.906;2023-04-01T13:21:06;10.00;99.90
52211;DHT22;38179;52.756;6.906;2023-04-01T13:23:40;10.00;99.90
52211;DHT22;38179;52.756;6.906;2023-04-01T13:26:18;9.90;99.90
52211;DHT22;38179;52.756;6.906;2023-04-01T13:29:08;9.90;99.90
52211;DHT22;38179;52.756;6.906;2023-04-01T13:31:52;9.80;99.90
52211;DHT22;38179;52.756;6.906;2023-04-01T13:40:21;9.70;99.90
52211;DHT22;38179;52.756;6.906;2023-04-01T13:43:00;9.70;99.90
52211;DHT22;38179;52.756;6.906;2023-04-01T14:17:59;9.70;99.90
52211;DHT22;38179;52.756;6.906;2023-04-01T14:20:59;9.70;99.90
52211;DHT22;38179;52.756;6.906;2023-04-01T14:49:05;9.50;99.90
52211;DHT22;38179;52.756;6.906;2023-04-01T14:51:40;9.50;99.90
52211;DHT22;38179;52.756;6.906;2023-04-01T14:54:30;9.40;99.90
52211;DHT22;38179;52.756;6.906;2023-04-01T14:57:44;9.40;99.90
52211;DHT22;38179;52.756;6.906;2023-04-01T14:59:54;9.30;99.90
52211;DHT22;38179;52.756;6.906;2023-04-01T15:19:50;9.30;99.90
52211;DHT22;38179;52.756;6.906;2023-04-01T15:22:27;9.20;99.90
52211;DHT22;38179;52.756;6.906;2023-04-01T15:25:31;9.20;99.90
52211;DHT22;38179;52.756;6.906;2023-04-01T15:28:22;9.20;99.90
52211;DHT22;38179;52.756;6.906;2023-04-01T15:31:04;9.20;99.90
52211;DHT22;38179;52.756;6.906;2023-04-01T15:33:54;9.20;99.90
52211;DHT22;38179;52.756;6.906;2023-04-01T15:39:24;9.10;99.90
52211;DHT22;38179;52.756;6.906;2023-04-01T15:45:01;9.00;99.90
52211;DHT22;38179;52.756;6.906;2023-04-01T15:50:46;9.00;99.90
52211;DHT22;38179;52.756;6.906;2023-04-01T15:56:19;8.90;99.90
52211;DHT22;38179;52.756;6.906;2023-04-01T16:07:55;8.80;99.90
52211;DHT22;38179;52.756;6.906;2023-04-01T16:13:28;8.70;99.90
52211;DHT22;38179;52.756;6.906;2023-04-01T16:21:49;8.70;99.90
52211;DHT22;38179;52.756;6.906;2023-04-01T16:35:20;8.50;99.90
52211;DHT22;38179;52.756;6.906;2023-04-01T16:37:54;8.50;99.90
52211;DHT22;38179;52.756;6.906;2023-04-01T16:40:36;8.40;99.90
52211;DHT22;38179;52.756;6.906;2023-04-01T16:43:42;8.40;99.90
52211;DHT22;38179;52.756;6.906;2023-04-01T16:46:21;8.40;99.90
52211;DHT22;38179;52.756;6.906;2023-04-01T16:48:57;8.40;99.90
52211;DHT22;38179;52.756;6.906;2023-04-01T16:51:24;8.30;99.90
52211;DHT22;38179;52.756;6.906;2023-04-01T16:54:04;8.30;99.90
52211;DHT22;38179;52.756;6.906;2023-04-01T16:56:43;8.20;99.90
52211;DHT22;38179;52.756;6.906;2023-04-01T17:02:10;8.20;99.90
52211;DHT22;38179;52.756;6.906;2023-04-01T17:04:47;8.20;99.90
52211;DHT22;38179;52.756;6.906;2023-04-01T17:10:06;8.10;99.90
52211;DHT22;38179;52.756;6.906;2023-04-01T17:12:51;8.10;99.90
52211;DHT22;38179;52.756;6.906;2023-04-01T17:15:37;8.10;99.90
52211;DHT22;38179;52.756;6.906;2023-04-01T17:18:14;8.10;99.90
52211;DHT22;38179;52.756;6.906;2023-04-01T17:23:51;8.00;99.90
52211;DHT22;38179;52.756;6.906;2023-04-01T17:26:40;7.90;99.90
52211;DHT22;38179;52.756;6.906;2023-04-01T17:40:34;7.70;99.90
52211;DHT22;38179;52.756;6.906;2023-04-01T17:45:54;7.70;99.90
52211;DHT22;38179;52.756;6.906;2023-04-01T17:48:46;7.70;99.90
52211;DHT22;38179;52.756;6.906;2023-04-01T17:51:24;7.70;99.90
52211;DHT22;38179;52.756;6.906;2023-04-01T17:59:44;7.60;99.90
52211;DHT22;38179;52.756;6.906;2023-04-01T18:02:39;7.60;99.90
52211;DHT22;38179;52.756;6.906;2023-04-01T18:08:14;7.50;99.90
52211;DHT22;38179;52.756;6.906;2023-04-01T18:11:25;7.50;99.90
52211;DHT22;38179;52.756;6.906;2023-04-01T18:17:16;7.40;99.90
52211;DHT22;38179;52.756;6.906;2023-04-01T18:25:22;7.30;99.90
52211;DHT22;38179;52.756;6.906;2023-04-01T18:28:26;7.30;99.90
52211;DHT22;38179;52.756;6.906;2023-04-01T18:36:13;7.20;99.90
52211;DHT22;38179;52.756;6.906;2023-04-01T18:41:22;7.20;99.90
52211;DHT22;38179;52.756;6.906;2023-04-01T18:49:48;7.10;99.90
52211;DHT22;38179;52.756;6.906;2023-04-01T18:58:05;7.00;99.90
52211;DHT22;38179;52.756;6.906;2023-04-01T19:00:36;7.00;99.90
52211;DHT22;38179;52.756;6.906;2023-04-01T19:06:45;6.90;99.90
52211;DHT22;38179;52.756;6.906;2023-04-01T19:12:48;6.90;99.90
52211;DHT22;38179;52.756;6.906;2023-04-01T19:15:34;6.90;99.90
52211;DHT22;38179;52.756;6.906;2023-04-01T19:21:57;6.80;99.90
52211;DHT22;38179;52.756;6.906;2023-04-01T19:33:06;6.70;99.90
52211;DHT22;38179;52.756;6.906;2023-04-01T19:43:36;6.60;99.90
52211;DHT22;38179;52.756;6.906;2023-04-01T19:54:30;6.60;99.90
52211;DHT22;38179;52.756;6.906;2023-04-01T19:57:30;6.60;99.90
52211;DHT22;38179;52.756;6.906;2023-04-01T20:00:03;6.50;99.90
52211;DHT22;38179;52.756;6.906;2023-04-01T20:02:54;6.50;99.90
52211;DHT22;38179;52.756;6.906;2023-04-01T20:05:30;6.50;99.90
52211;DHT22;38179;52.756;6.906;2023-04-01T20:19:40;6.40;99.90
52211;DHT22;38179;52.756;6.906;2023-04-01T20:28:05;6.40;99.90
52211;DHT22;38179;52.756;6.906;2023-04-01T20:36:16;6.30;99.90
52211;DHT22;38179;52.756;6.906;2023-04-01T20:47:45;6.30;99.90
52211;DHT22;38179;52.756;6.906;2023-04-01T20:53:13;6.30;99.90
52211;DHT22;38179;52.756;6.906;2023-04-01T21:01:13;6.20;99.90
52211;DHT22;38179;52.756;6.906;2023-04-01T21:09:06;6.20;99.90
52211;DHT22;38179;52.756;6.906;2023-04-01T21:11:41;6.20;99.90
52211;DHT22;38179;52.756;6.906;2023-04-01T21:33:49;6.00;99.90
52211;DHT22;38179;52.756;6.906;2023-04-01T21:54:04;5.90;99.90
52211;DHT22;38179;52.756;6.906;2023-04-01T21:56:33;5.90;99.90
52211;DHT22;38179;52.756;6.906;2023-04-01T22:05:21;5.90;99.90
52211;DHT22;38179;52.756;6.906;2023-04-01T22:19:00;5.70;99.90
52211;DHT22;38179;52.756;6.906;2023-04-01T22:24:39;5.60;99.90
52211;DHT22;38179;52.756;6.906;2023-04-01T22:27:42;5.60;99.90
52211;DHT22;38179;52.756;6.906;2023-04-01T22:30:24;5.60;99.90
52211;DHT22;38179;52.756;6.906;2023-04-01T22:38:40;5.60;99.90
52211;DHT22;38179;52.756;6.906;2023-04-01T22:43:36;5.50;99.90
52211;DHT22;38179;52.756;6.906;2023-04-01T22:56:49;5.40;99.90
52211;DHT22;38179;52.756;6.906;2023-04-01T23:01:58;5.40;99.90
52211;DHT22;38179;52.756;6.906;2023-04-01T23:04:31;5.40;99.90
52211;DHT22;38179;52.756;6.906;2023-04-01T23:07:02;5.40;99.90
52211;DHT22;38179;52.756;6.906;2023-04-01T23:09:36;5.40;99.90
52211;DHT22;38179;52.756;6.906;2023-04-01T23:12:05;5.40;99.90
52211;DHT22;38179;52.756;6.906;2023-04-01T23:14:55;5.40;99.90
52211;DHT22;38179;52.756;6.906;2023-04-01T23:20:20;5.40;99.90
52211;DHT22;38179;52.756;6.906;2023-04-01T23:23:17;5.30;99.90
52211;DHT22;38179;52.756;6.906;2023-04-01T23:28:43;5.30;99.90
52211;DHT22;38179;52.756;6.906;2023-04-01T23:31:42;5.30;99.90
52211;DHT22;38179;52.756;6.906;2023-04-01T23:36:43;5.30;99.90
52211;DHT22;38179;52.756;6.906;2023-04-01T23:39:27;5.30;99.90
52211;DHT22;38179;52.756;6.906;2023-04-01T23:42:01;5.30;99.90
52211;DHT22;38179;52.756;6.906;2023-04-01T23:44:28;5.30;99.90
52211;DHT22;38179;52.756;6.906;2023-04-01T23:46:55;5.20;99.90
52211;DHT22;38179;52.756;6.906;2023-04-01T23:49:37;5.20;99.90
52211;DHT22;38179;52.756;6.906;2023-04-01T23:52:21;5.20;99.90
52211;DHT22;38179;52.756;6.906;2023-04-01T23:55:14;5.20;99.90
52211;DHT22;38179;52.756;6.906;2023-04-01T23:57:40;5.10;99.90
